createdAt,value
2018-06-08T00:00:40.742Z,0.00
2018-06-08T00:01:41.035Z,0.00
2018-06-08T00:02:40.713Z,0.00
2018-06-08T00:03:40.699Z,0.00
2018-06-08T00:04:40.684Z,0.00
2018-06-08T00:05:40.671Z,0.00
2018-06-08T00:06:40.655Z,0.00
2018-06-08T00:07:40.658Z,0.00
2018-06-08T00:08:40.626Z,0.00
2018-06-08T00:09:40.612Z,0.00
2018-06-08T00:10:40.596Z,0.00
2018-06-08T00:11:40.581Z,0.00
2018-06-08T00:12:40.581Z,0.00
2018-06-08T00:13:40.554Z,0.00
2018-06-08T00:14:40.541Z,0.00
2018-06-08T00:15:40.522Z,0.00
2018-06-08T00:16:40.509Z,0.00
2018-06-08T00:17:40.506Z,0.00
2018-06-08T00:18:40.480Z,0.00
2018-06-08T00:19:40.463Z,0.00
2018-06-08T00:20:40.456Z,0.00
2018-06-08T00:21:40.437Z,0.00
2018-06-08T00:22:40.432Z,0.00
2018-06-08T00:23:40.406Z,0.00
2018-06-08T00:24:40.392Z,0.00
2018-06-08T00:25:40.379Z,0.00
2018-06-08T00:26:40.363Z,0.00
2018-06-08T00:27:40.363Z,0.00
2018-06-08T00:28:40.335Z,0.00
2018-06-08T00:29:40.321Z,0.00
2018-06-08T00:30:40.303Z,0.00
2018-06-08T00:31:40.289Z,0.00
2018-06-08T00:32:40.276Z,0.00
2018-06-08T00:33:40.283Z,0.00
2018-06-08T00:34:40.247Z,0.00
2018-06-08T00:35:40.233Z,0.00
2018-06-08T00:36:40.218Z,0.00
2018-06-08T00:37:40.201Z,0.00
2018-06-08T00:38:40.199Z,0.00
2018-06-08T00:39:40.172Z,0.00
2018-06-08T00:40:40.160Z,0.00
2018-06-08T00:41:40.145Z,0.00
2018-06-08T00:42:40.132Z,0.00
2018-06-08T00:43:40.128Z,0.00
2018-06-08T00:44:40.101Z,0.00
2018-06-08T00:45:40.088Z,0.00
2018-06-08T00:46:40.073Z,0.00
2018-06-08T00:47:40.059Z,0.00
2018-06-08T00:48:40.052Z,0.00
2018-06-08T00:49:40.031Z,0.00
2018-06-08T00:50:40.014Z,0.00
2018-06-08T00:51:39.999Z,0.00
2018-06-08T00:52:39.992Z,0.00
2018-06-08T00:53:39.986Z,0.00
2018-06-08T00:54:39.955Z,0.00
2018-06-08T00:55:39.943Z,0.00
2018-06-08T00:56:39.925Z,0.00
2018-06-08T00:57:39.917Z,0.00
2018-06-08T00:58:39.908Z,0.00
2018-06-08T00:59:39.884Z,0.00
2018-06-08T01:00:39.868Z,0.00
2018-06-08T01:01:39.854Z,0.00
2018-06-08T01:02:39.836Z,0.00
2018-06-08T01:03:39.837Z,0.00
2018-06-08T01:04:39.810Z,0.00
2018-06-08T01:05:39.795Z,0.00
2018-06-08T01:06:39.781Z,0.00
2018-06-08T01:07:39.768Z,0.00
2018-06-08T01:08:39.751Z,0.00
2018-06-08T01:09:39.745Z,0.00
2018-06-08T01:10:39.722Z,0.00
2018-06-08T01:11:39.709Z,0.00
2018-06-08T01:12:39.704Z,0.00
2018-06-08T01:13:39.677Z,0.00
2018-06-08T01:14:39.671Z,0.00
2018-06-08T01:15:39.648Z,0.00
2018-06-08T01:16:39.634Z,0.00
2018-06-08T01:17:39.619Z,0.00
2018-06-08T01:18:39.610Z,0.00
2018-06-08T01:19:39.604Z,0.00
2018-06-08T01:20:39.575Z,0.00
2018-06-08T01:21:39.561Z,0.00
2018-06-08T01:22:39.548Z,0.00
2018-06-08T01:23:39.531Z,0.00
2018-06-08T01:24:39.518Z,0.00
2018-06-08T01:25:39.527Z,0.00
2018-06-08T01:26:39.485Z,0.00
2018-06-08T01:27:39.471Z,0.00
2018-06-08T01:28:39.457Z,0.00
2018-06-08T01:29:39.443Z,0.00
2018-06-08T01:30:39.437Z,0.00
2018-06-08T01:31:39.413Z,0.00
2018-06-08T01:32:39.402Z,0.00
2018-06-08T01:33:39.384Z,0.00
2018-06-08T01:34:39.367Z,0.00
2018-06-08T01:35:39.365Z,0.00
2018-06-08T01:36:39.339Z,0.00
2018-06-08T01:37:39.339Z,0.00
2018-06-08T01:38:39.309Z,0.00
2018-06-08T01:39:39.293Z,0.00
2018-06-08T01:40:39.295Z,0.00
2018-06-08T01:41:39.267Z,0.00
2018-06-08T01:42:39.250Z,0.00
2018-06-08T01:43:39.236Z,0.00
2018-06-08T01:44:39.223Z,0.00
2018-06-08T01:45:39.214Z,0.00
2018-06-08T01:46:39.205Z,0.00
2018-06-08T01:47:39.177Z,0.00
2018-06-08T01:48:39.167Z,0.00
2018-06-08T01:49:39.149Z,0.00
2018-06-08T01:50:39.134Z,0.00
2018-06-08T01:51:39.130Z,0.00
2018-06-08T01:52:39.105Z,0.00
2018-06-08T01:53:39.091Z,0.00
2018-06-08T01:54:39.076Z,0.00
2018-06-08T01:55:39.063Z,0.00
2018-06-08T01:56:39.059Z,0.00
2018-06-08T01:57:39.029Z,0.00
2018-06-08T01:58:39.014Z,0.00
2018-06-08T01:59:39.002Z,0.00
2018-06-08T02:00:38.985Z,0.00
2018-06-08T02:01:38.983Z,0.00
2018-06-08T02:02:38.961Z,0.00
2018-06-08T02:03:38.943Z,0.00
2018-06-08T02:04:38.928Z,0.00
2018-06-08T02:05:38.914Z,0.00
2018-06-08T02:06:38.913Z,0.00
2018-06-08T02:07:38.883Z,0.00
2018-06-08T02:08:38.872Z,0.00
2018-06-08T02:09:38.855Z,0.00
2018-06-08T02:10:38.843Z,0.00
2018-06-08T02:11:38.824Z,0.00
2018-06-08T02:12:38.820Z,0.00
2018-06-08T02:13:38.796Z,0.00
2018-06-08T02:14:38.784Z,0.00
2018-06-08T02:15:38.766Z,0.00
2018-06-08T02:16:38.753Z,0.00
2018-06-08T02:17:38.746Z,0.00
2018-06-08T02:18:38.721Z,0.00
2018-06-08T02:19:38.706Z,0.00
2018-06-08T02:20:38.693Z,0.00
2018-06-08T02:21:38.679Z,0.00
2018-06-08T02:22:38.674Z,0.00
2018-06-08T02:23:38.648Z,0.00
2018-06-08T02:24:38.634Z,0.00
2018-06-08T02:25:38.621Z,0.00
2018-06-08T02:26:38.605Z,0.00
2018-06-08T02:27:38.603Z,0.00
2018-06-08T02:28:38.574Z,0.00
2018-06-08T02:29:38.563Z,0.00
2018-06-08T02:30:38.547Z,0.00
2018-06-08T02:31:38.529Z,0.00
2018-06-08T02:32:38.531Z,0.00
2018-06-08T02:33:38.501Z,0.00
2018-06-08T02:34:38.487Z,0.00
2018-06-08T02:35:38.470Z,0.00
2018-06-08T02:36:38.455Z,0.00
2018-06-08T02:37:38.442Z,0.00
2018-06-08T02:38:38.437Z,0.00
2018-06-08T02:39:38.414Z,0.00
2018-06-08T02:40:38.397Z,0.00
2018-06-08T02:41:38.383Z,0.00
2018-06-08T02:42:38.368Z,0.00
2018-06-08T02:43:38.365Z,0.00
2018-06-08T02:44:38.338Z,0.00
2018-06-08T02:45:38.323Z,0.00
2018-06-08T02:46:38.313Z,0.00
2018-06-08T02:47:38.295Z,0.00
2018-06-08T02:48:38.289Z,0.00
2018-06-08T02:49:38.264Z,0.00
2018-06-08T02:50:38.254Z,0.00
2018-06-08T02:51:38.234Z,0.00
2018-06-08T02:52:38.221Z,0.00
2018-06-08T02:53:38.215Z,0.00
2018-06-08T02:54:38.195Z,0.00
2018-06-08T02:55:38.179Z,0.00
2018-06-08T02:56:38.161Z,0.00
2018-06-08T02:57:38.146Z,0.00
2018-06-08T02:58:38.144Z,0.00
2018-06-08T02:59:38.115Z,0.00
2018-06-08T03:00:38.141Z,0.00
2018-06-08T03:01:38.089Z,0.00
2018-06-08T03:02:38.070Z,0.00
2018-06-08T03:03:38.057Z,0.00
2018-06-08T03:04:38.050Z,0.00
2018-06-08T03:05:38.027Z,0.00
2018-06-08T03:06:38.018Z,0.00
2018-06-08T03:07:37.997Z,0.00
2018-06-08T03:08:37.984Z,0.00
2018-06-08T03:09:37.978Z,0.00
2018-06-08T03:10:37.960Z,0.00
2018-06-08T03:11:37.940Z,0.00
2018-06-08T03:12:37.923Z,0.00
2018-06-08T03:13:37.910Z,0.00
2018-06-08T03:14:37.910Z,0.00
2018-06-08T03:15:37.878Z,0.00
2018-06-08T03:16:37.865Z,5.63
2018-06-08T03:17:37.848Z,5.63
2018-06-08T03:18:37.835Z,5.63
2018-06-08T03:19:37.818Z,5.63
2018-06-08T03:20:37.860Z,5.63
2018-06-08T03:21:37.789Z,5.63
2018-06-08T03:22:37.776Z,5.63
2018-06-08T03:23:37.762Z,5.63
2018-06-08T03:24:37.792Z,5.63
2018-06-08T03:25:37.741Z,11.25
2018-06-08T03:26:37.716Z,11.25
2018-06-08T03:27:37.703Z,11.25
2018-06-08T03:28:37.685Z,11.25
2018-06-08T03:29:37.671Z,11.25
2018-06-08T03:30:37.929Z,11.25
2018-06-08T03:31:37.645Z,16.88
2018-06-08T03:32:37.626Z,16.88
2018-06-08T03:33:37.613Z,16.88
2018-06-08T03:34:37.597Z,16.88
2018-06-08T03:35:37.581Z,16.88
2018-06-08T03:36:37.579Z,22.50
2018-06-08T03:37:37.552Z,22.50
2018-06-08T03:38:37.537Z,22.50
2018-06-08T03:39:37.551Z,22.50
2018-06-08T03:40:37.512Z,28.13
2018-06-08T03:41:37.503Z,28.13
2018-06-08T03:42:37.483Z,28.13
2018-06-08T03:43:37.462Z,28.13
2018-06-08T03:44:37.448Z,33.75
2018-06-08T03:45:37.433Z,33.75
2018-06-08T03:46:37.452Z,33.75
2018-06-08T03:47:37.407Z,39.38
2018-06-08T03:48:37.389Z,39.38
2018-06-08T03:49:37.372Z,39.38
2018-06-08T03:50:37.357Z,45.00
2018-06-08T03:51:37.345Z,45.00
2018-06-08T03:52:37.346Z,50.63
2018-06-08T03:53:37.314Z,50.63
2018-06-08T03:54:37.299Z,50.63
2018-06-08T03:55:37.284Z,56.25
2018-06-08T03:56:37.270Z,56.25
2018-06-08T03:57:37.267Z,56.25
2018-06-08T03:58:37.239Z,56.25
2018-06-08T03:59:37.225Z,56.25
2018-06-08T04:00:37.210Z,56.25
2018-06-08T04:01:37.196Z,61.88
2018-06-08T04:02:37.213Z,61.88
2018-06-08T04:03:37.167Z,61.88
2018-06-08T04:04:37.151Z,61.88
2018-06-08T04:05:37.136Z,67.50
2018-06-08T04:06:37.122Z,61.88
2018-06-08T04:07:37.106Z,61.88
2018-06-08T04:08:37.103Z,61.88
2018-06-08T04:09:37.077Z,61.88
2018-06-08T04:10:37.067Z,67.50
2018-06-08T04:11:37.051Z,67.50
2018-06-08T04:12:37.037Z,67.50
2018-06-08T04:13:37.029Z,67.50
2018-06-08T04:14:37.003Z,73.13
2018-06-08T04:15:36.988Z,73.13
2018-06-08T04:16:36.975Z,78.75
2018-06-08T04:17:36.968Z,78.75
2018-06-08T04:18:36.953Z,84.38
2018-06-08T04:19:36.929Z,90.00
2018-06-08T04:20:36.914Z,95.63
2018-06-08T04:21:36.901Z,101.25
2018-06-08T04:22:36.885Z,101.25
2018-06-08T04:23:36.870Z,106.88
2018-06-08T04:24:36.869Z,112.50
2018-06-08T04:25:36.844Z,112.50
2018-06-08T04:26:36.826Z,118.13
2018-06-08T04:27:36.811Z,118.13
2018-06-08T04:28:36.796Z,118.13
2018-06-08T04:29:36.792Z,118.13
2018-06-08T04:30:36.772Z,123.75
2018-06-08T04:31:36.753Z,123.75
2018-06-08T04:32:36.737Z,123.75
2018-06-08T04:33:36.723Z,123.75
2018-06-08T04:34:36.718Z,129.38
2018-06-08T04:35:36.693Z,135.00
2018-06-08T04:36:36.680Z,135.00
2018-06-08T04:37:36.665Z,129.38
2018-06-08T04:38:36.649Z,129.38
2018-06-08T04:39:36.649Z,129.38
2018-06-08T04:40:36.622Z,135.00
2018-06-08T04:41:36.607Z,140.63
2018-06-08T04:42:36.591Z,151.88
2018-06-08T04:43:36.578Z,157.50
2018-06-08T04:44:36.581Z,168.75
2018-06-08T04:45:36.548Z,174.38
2018-06-08T04:46:36.534Z,180.00
2018-06-08T04:47:36.519Z,185.63
2018-06-08T04:48:36.505Z,191.25
2018-06-08T04:49:36.490Z,196.88
2018-06-08T04:50:36.484Z,196.88
2018-06-08T04:51:36.503Z,202.50
2018-06-08T04:52:36.447Z,202.50
2018-06-08T04:53:36.432Z,208.13
2018-06-08T04:54:36.418Z,208.13
2018-06-08T04:55:36.435Z,208.13
2018-06-08T04:56:36.389Z,208.13
2018-06-08T04:57:36.373Z,213.75
2018-06-08T04:58:36.359Z,208.13
2018-06-08T04:59:36.346Z,202.50
2018-06-08T05:00:36.331Z,202.50
2018-06-08T05:01:36.330Z,196.88
2018-06-08T05:02:36.302Z,185.63
2018-06-08T05:03:36.287Z,174.38
2018-06-08T05:04:36.274Z,163.13
2018-06-08T05:05:36.258Z,151.88
2018-06-08T05:06:36.256Z,146.25
2018-06-08T05:07:36.231Z,146.25
2018-06-08T05:08:36.217Z,151.88
2018-06-08T05:09:36.221Z,151.88
2018-06-08T05:10:36.192Z,151.88
2018-06-08T05:11:36.184Z,151.88
2018-06-08T05:12:36.160Z,163.13
2018-06-08T05:13:36.146Z,180.00
2018-06-08T05:14:36.130Z,191.25
2018-06-08T05:15:36.116Z,202.50
2018-06-08T05:16:36.123Z,219.38
2018-06-08T05:17:36.089Z,230.63
2018-06-08T05:18:36.075Z,236.25
2018-06-08T05:19:36.062Z,236.25
2018-06-08T05:20:36.046Z,241.88
2018-06-08T05:21:36.028Z,236.25
2018-06-08T05:22:36.031Z,225.00
2018-06-08T05:23:36.002Z,219.38
2018-06-08T05:24:35.990Z,230.63
2018-06-08T05:25:35.977Z,230.63
2018-06-08T05:26:35.962Z,241.88
2018-06-08T05:27:35.961Z,258.75
2018-06-08T05:28:35.937Z,275.63
2018-06-08T05:29:35.917Z,292.50
2018-06-08T05:30:35.904Z,309.38
2018-06-08T05:31:35.890Z,309.38
2018-06-08T05:32:35.876Z,309.38
2018-06-08T05:33:35.873Z,309.38
2018-06-08T05:34:35.850Z,315.00
2018-06-08T05:35:35.834Z,320.63
2018-06-08T05:36:35.820Z,320.63
2018-06-08T05:37:35.806Z,320.63
2018-06-08T05:38:35.802Z,326.25
2018-06-08T05:39:35.778Z,331.88
2018-06-08T05:40:35.763Z,337.50
2018-06-08T05:41:35.752Z,337.50
2018-06-08T05:42:35.751Z,348.75
2018-06-08T05:43:35.735Z,360.00
2018-06-08T05:44:35.709Z,365.63
2018-06-08T05:45:35.695Z,376.88
2018-06-08T05:46:35.684Z,382.50
2018-06-08T05:47:35.668Z,393.75
2018-06-08T05:48:35.720Z,399.38
2018-06-08T05:49:35.640Z,410.63
2018-06-08T05:50:35.625Z,416.25
2018-06-08T05:51:35.611Z,416.25
2018-06-08T05:52:35.601Z,416.25
2018-06-08T05:53:35.585Z,427.50
2018-06-08T05:54:35.579Z,438.75
2018-06-08T05:55:35.561Z,450.00
2018-06-08T05:56:35.542Z,461.25
2018-06-08T05:57:35.530Z,466.88
2018-06-08T05:58:35.516Z,466.88
2018-06-08T05:59:35.512Z,472.50
2018-06-08T06:00:35.491Z,478.13
2018-06-08T06:01:35.475Z,478.13
2018-06-08T06:02:35.462Z,478.13
2018-06-08T06:03:35.447Z,478.13
2018-06-08T06:04:35.453Z,478.13
2018-06-08T06:05:35.422Z,478.13
2018-06-08T06:06:35.406Z,472.50
2018-06-08T06:07:35.397Z,472.50
2018-06-08T06:08:35.383Z,478.13
2018-06-08T06:09:35.369Z,489.38
2018-06-08T06:10:35.366Z,495.00
2018-06-08T06:11:35.342Z,500.63
2018-06-08T06:12:35.329Z,500.63
2018-06-08T06:13:35.314Z,500.63
2018-06-08T06:14:35.301Z,495.00
2018-06-08T06:15:35.307Z,478.13
2018-06-08T06:16:35.276Z,466.88
2018-06-08T06:17:35.263Z,450.00
2018-06-08T06:18:35.247Z,444.38
2018-06-08T06:19:35.236Z,433.13
2018-06-08T06:20:35.236Z,421.88
2018-06-08T06:21:35.211Z,421.88
2018-06-08T06:22:35.197Z,421.88
2018-06-08T06:23:35.182Z,421.88
2018-06-08T06:24:35.170Z,421.88
2018-06-08T06:25:35.195Z,433.13
2018-06-08T06:26:35.143Z,438.75
2018-06-08T06:27:35.131Z,438.75
2018-06-08T06:28:35.116Z,444.38
2018-06-08T06:29:35.106Z,450.00
2018-06-08T06:30:35.094Z,444.38
2018-06-08T06:31:35.092Z,427.50
2018-06-08T06:32:35.066Z,427.50
2018-06-08T06:33:35.054Z,421.88
2018-06-08T06:34:35.041Z,410.63
2018-06-08T06:35:35.029Z,416.25
2018-06-08T06:36:35.031Z,410.63
2018-06-08T06:37:35.006Z,410.63
2018-06-08T06:38:34.988Z,399.38
2018-06-08T06:39:34.980Z,393.75
2018-06-08T06:40:34.963Z,388.13
2018-06-08T06:41:34.950Z,376.88
2018-06-08T06:42:34.947Z,371.25
2018-06-08T06:43:34.928Z,376.88
2018-06-08T06:44:34.911Z,376.88
2018-06-08T06:45:34.898Z,393.75
2018-06-08T06:46:34.917Z,388.13
2018-06-08T06:47:34.873Z,376.88
2018-06-08T06:48:34.865Z,371.25
2018-06-08T06:49:34.846Z,393.75
2018-06-08T06:50:34.831Z,416.25
2018-06-08T06:51:34.821Z,438.75
2018-06-08T06:52:34.823Z,500.63
2018-06-08T06:53:34.794Z,511.88
2018-06-08T06:54:34.784Z,511.88
2018-06-08T06:55:34.769Z,551.25
2018-06-08T06:56:34.758Z,579.38
2018-06-08T06:57:34.754Z,613.13
2018-06-08T06:58:34.728Z,663.75
2018-06-08T06:59:34.720Z,675.00
2018-06-08T07:00:34.704Z,708.75
2018-06-08T07:01:34.692Z,736.88
2018-06-08T07:02:34.689Z,742.50
2018-06-08T07:03:34.665Z,748.13
2018-06-08T07:04:34.654Z,731.25
2018-06-08T07:05:34.641Z,725.63
2018-06-08T07:06:34.628Z,742.50
2018-06-08T07:07:34.625Z,725.63
2018-06-08T07:08:34.604Z,703.13
2018-06-08T07:09:34.591Z,686.25
2018-06-08T07:10:34.577Z,669.38
2018-06-08T07:11:34.565Z,669.38
2018-06-08T07:12:34.569Z,680.63
2018-06-08T07:13:34.541Z,703.13
2018-06-08T07:14:34.526Z,736.88
2018-06-08T07:15:34.515Z,770.63
2018-06-08T07:16:34.504Z,787.50
2018-06-08T07:17:34.508Z,798.75
2018-06-08T07:18:34.483Z,815.63
2018-06-08T07:19:34.469Z,810.00
2018-06-08T07:20:34.456Z,787.50
2018-06-08T07:21:34.444Z,748.13
2018-06-08T07:22:34.430Z,742.50
2018-06-08T07:23:34.432Z,742.50
2018-06-08T07:24:34.409Z,759.38
2018-06-08T07:25:34.394Z,759.38
2018-06-08T07:26:34.387Z,720.00
2018-06-08T07:27:34.374Z,691.88
2018-06-08T07:28:34.374Z,658.13
2018-06-08T07:29:34.349Z,641.25
2018-06-08T07:30:34.336Z,624.38
2018-06-08T07:31:34.361Z,630.00
2018-06-08T07:32:34.314Z,624.38
2018-06-08T07:33:34.302Z,635.63
2018-06-08T07:34:34.301Z,630.00
2018-06-08T07:35:34.282Z,607.50
2018-06-08T07:36:34.273Z,613.13
2018-06-08T07:37:34.255Z,630.00
2018-06-08T07:38:34.242Z,652.50
2018-06-08T07:39:34.250Z,680.63
2018-06-08T07:40:34.221Z,697.50
2018-06-08T07:41:34.208Z,720.00
2018-06-08T07:42:34.194Z,736.88
2018-06-08T07:43:34.184Z,748.13
2018-06-08T07:44:34.185Z,753.75
2018-06-08T07:45:34.163Z,742.50
2018-06-08T07:46:34.147Z,725.63
2018-06-08T07:47:34.138Z,714.38
2018-06-08T07:48:34.124Z,731.25
2018-06-08T07:49:34.122Z,742.50
2018-06-08T07:50:34.100Z,748.13
2018-06-08T07:51:34.090Z,742.50
2018-06-08T07:52:34.077Z,731.25
2018-06-08T07:53:34.067Z,720.00
2018-06-08T07:54:34.068Z,686.25
2018-06-08T07:55:34.057Z,663.75
2018-06-08T07:56:34.032Z,652.50
2018-06-08T07:57:34.021Z,663.75
2018-06-08T07:58:34.007Z,675.00
2018-06-08T07:59:34.013Z,686.25
2018-06-08T08:00:33.986Z,686.25
2018-06-08T08:01:33.973Z,697.50
2018-06-08T08:02:33.961Z,708.75
2018-06-08T08:03:33.951Z,703.13
2018-06-08T08:04:33.938Z,680.63
2018-06-08T08:05:33.941Z,675.00
2018-06-08T08:06:33.914Z,675.00
2018-06-08T08:07:33.905Z,708.75
2018-06-08T08:08:33.893Z,759.38
2018-06-08T08:09:33.891Z,798.75
2018-06-08T08:10:33.877Z,804.38
2018-06-08T08:11:33.859Z,810.00
2018-06-08T08:12:33.845Z,815.63
2018-06-08T08:13:33.836Z,832.50
2018-06-08T08:14:33.822Z,832.50
2018-06-08T08:15:33.820Z,821.25
2018-06-08T08:16:33.799Z,810.00
2018-06-08T08:17:33.787Z,798.75
2018-06-08T08:18:33.775Z,781.88
2018-06-08T08:19:33.764Z,765.00
2018-06-08T08:20:34.048Z,748.13
2018-06-08T08:21:33.742Z,736.88
2018-06-08T08:22:33.729Z,731.25
2018-06-08T08:23:33.719Z,736.88
2018-06-08T08:24:33.707Z,736.88
2018-06-08T08:25:33.699Z,753.75
2018-06-08T08:26:33.694Z,770.63
2018-06-08T08:27:33.673Z,798.75
2018-06-08T08:28:33.666Z,798.75
2018-06-08T08:29:33.651Z,781.88
2018-06-08T08:30:33.638Z,759.38
2018-06-08T08:31:33.640Z,742.50
2018-06-08T08:32:33.615Z,703.13
2018-06-08T08:33:33.606Z,658.13
2018-06-08T08:34:33.600Z,607.50
2018-06-08T08:35:33.583Z,562.50
2018-06-08T08:36:33.582Z,528.75
2018-06-08T08:37:33.560Z,495.00
2018-06-08T08:38:33.547Z,478.13
2018-06-08T08:39:33.537Z,461.25
2018-06-08T08:40:33.523Z,444.38
2018-06-08T08:41:33.543Z,438.75
2018-06-08T08:42:33.502Z,410.63
2018-06-08T08:43:33.492Z,433.13
2018-06-08T08:44:33.480Z,455.63
2018-06-08T08:45:33.467Z,450.00
2018-06-08T08:46:33.453Z,427.50
2018-06-08T08:47:33.457Z,416.25
2018-06-08T08:48:33.432Z,427.50
2018-06-08T08:49:33.420Z,455.63
2018-06-08T08:50:33.408Z,483.75
2018-06-08T08:51:33.439Z,495.00
2018-06-08T08:52:33.400Z,506.25
2018-06-08T08:53:33.371Z,551.25
2018-06-08T08:54:33.361Z,551.25
2018-06-08T08:55:33.351Z,551.25
2018-06-08T08:56:33.335Z,613.13
2018-06-08T08:57:33.323Z,607.50
2018-06-08T08:58:33.321Z,545.63
2018-06-08T08:59:33.298Z,483.75
2018-06-08T09:00:33.286Z,455.63
2018-06-08T09:01:33.273Z,466.88
2018-06-08T09:02:33.263Z,489.38
2018-06-08T09:03:33.261Z,528.75
2018-06-08T09:04:33.239Z,534.38
2018-06-08T09:05:33.226Z,528.75
2018-06-08T09:06:33.213Z,534.38
2018-06-08T09:07:33.201Z,534.38
2018-06-08T09:08:33.199Z,556.88
2018-06-08T09:09:33.178Z,630.00
2018-06-08T09:10:33.164Z,714.38
2018-06-08T09:11:33.207Z,815.63
2018-06-08T09:12:33.142Z,933.75
2018-06-08T09:13:33.141Z,1001.25
2018-06-08T09:14:33.116Z,1068.75
2018-06-08T09:15:33.106Z,1119.38
2018-06-08T09:16:33.094Z,1074.38
2018-06-08T09:17:33.082Z,995.63
2018-06-08T09:18:33.081Z,928.13
2018-06-08T09:19:33.058Z,877.50
2018-06-08T09:20:33.047Z,860.63
2018-06-08T09:21:33.035Z,877.50
2018-06-08T09:22:33.022Z,888.75
2018-06-08T09:23:33.010Z,950.63
2018-06-08T09:24:33.008Z,990.00
2018-06-08T09:25:32.990Z,1023.75
2018-06-08T09:26:32.976Z,1040.63
2018-06-08T09:27:32.963Z,1074.38
2018-06-08T09:28:32.953Z,1153.13
2018-06-08T09:29:32.952Z,1237.50
2018-06-08T09:30:32.929Z,1276.88
2018-06-08T09:31:32.918Z,1310.63
2018-06-08T09:32:32.905Z,1288.13
2018-06-08T09:33:32.895Z,1243.13
2018-06-08T09:34:32.893Z,1209.38
2018-06-08T09:35:32.876Z,1170.00
2018-06-08T09:36:32.861Z,1192.50
2018-06-08T09:37:32.854Z,1231.88
2018-06-08T09:38:32.838Z,1305.00
2018-06-08T09:39:32.838Z,1378.13
2018-06-08T09:40:32.816Z,1378.13
2018-06-08T09:41:32.807Z,1333.13
2018-06-08T09:42:32.794Z,1260.00
2018-06-08T09:43:32.783Z,1203.75
2018-06-08T09:44:32.808Z,1186.88
2018-06-08T09:45:32.764Z,1158.75
2018-06-08T09:46:32.748Z,1119.38
2018-06-08T09:47:32.740Z,1080.00
2018-06-08T09:48:32.727Z,1080.00
2018-06-08T09:49:32.715Z,1153.13
2018-06-08T09:50:32.717Z,1186.88
2018-06-08T09:51:32.695Z,1215.00
2018-06-08T09:52:32.687Z,1215.00
2018-06-08T09:53:32.674Z,1175.63
2018-06-08T09:54:32.662Z,1215.00
2018-06-08T09:55:32.663Z,1310.63
2018-06-08T09:56:32.642Z,1383.75
2018-06-08T09:57:32.635Z,1411.88
2018-06-08T09:58:32.618Z,1586.25
2018-06-08T09:59:32.610Z,1580.63
2018-06-08T10:00:32.613Z,1580.63
2018-06-08T10:01:32.590Z,1546.88
2018-06-08T10:02:32.575Z,1423.13
2018-06-08T10:03:32.563Z,1231.88
2018-06-08T10:04:32.553Z,1170.00
2018-06-08T10:05:32.543Z,1220.63
2018-06-08T10:06:32.544Z,1271.25
2018-06-08T10:07:32.524Z,1226.25
2018-06-08T10:08:32.512Z,1215.00
2018-06-08T10:09:32.503Z,1198.13
2018-06-08T10:10:32.488Z,1113.75
2018-06-08T10:11:32.491Z,995.63
2018-06-08T10:12:32.469Z,1001.25
2018-06-08T10:13:32.459Z,1040.63
2018-06-08T10:14:32.446Z,1051.88
2018-06-08T10:15:32.436Z,1023.75
2018-06-08T10:16:32.471Z,939.38
2018-06-08T10:17:32.413Z,843.75
2018-06-08T10:18:32.402Z,753.75
2018-06-08T10:19:32.392Z,725.63
2018-06-08T10:20:32.381Z,748.13
2018-06-08T10:21:32.369Z,742.50
2018-06-08T10:22:32.369Z,753.75
2018-06-08T10:23:32.348Z,663.75
2018-06-08T10:24:32.337Z,495.00
2018-06-08T10:25:32.326Z,343.13
2018-06-08T10:26:32.314Z,292.50
2018-06-08T10:27:32.312Z,264.38
2018-06-08T10:28:32.297Z,264.38
2018-06-08T10:29:32.282Z,281.25
2018-06-08T10:30:32.268Z,309.38
2018-06-08T10:31:32.259Z,337.50
2018-06-08T10:32:32.256Z,354.38
2018-06-08T10:33:32.233Z,382.50
2018-06-08T10:34:32.222Z,399.38
2018-06-08T10:35:32.209Z,427.50
2018-06-08T10:36:32.198Z,472.50
2018-06-08T10:37:32.201Z,534.38
2018-06-08T10:38:32.173Z,624.38
2018-06-08T10:39:32.159Z,720.00
2018-06-08T10:40:32.149Z,804.38
2018-06-08T10:41:32.137Z,883.13
2018-06-08T10:42:32.126Z,973.13
2018-06-08T10:43:32.124Z,1063.13
2018-06-08T10:44:32.101Z,1170.00
2018-06-08T10:45:32.092Z,1316.25
2018-06-08T10:46:32.077Z,1400.63
2018-06-08T10:47:32.067Z,1440.00
2018-06-08T10:48:32.064Z,1473.75
2018-06-08T10:49:32.044Z,1496.25
2018-06-08T10:50:32.030Z,1479.38
2018-06-08T10:51:32.021Z,1513.13
2018-06-08T10:52:32.005Z,1490.63
2018-06-08T10:53:32.006Z,1507.50
2018-06-08T10:54:31.983Z,1468.13
2018-06-08T10:55:31.972Z,1350.00
2018-06-08T10:56:31.965Z,1203.75
2018-06-08T10:57:31.954Z,1113.75
2018-06-08T10:58:31.948Z,1198.13
2018-06-08T10:59:31.927Z,1209.38
2018-06-08T11:00:31.915Z,1231.88
2018-06-08T11:01:31.904Z,1276.88
2018-06-08T11:02:31.892Z,1333.13
2018-06-08T11:03:31.891Z,1411.88
2018-06-08T11:04:31.875Z,1473.75
2018-06-08T11:05:31.861Z,1546.88
2018-06-08T11:06:31.849Z,1636.88
2018-06-08T11:07:31.838Z,1681.88
2018-06-08T11:08:31.840Z,1721.25
2018-06-08T11:09:31.817Z,1788.75
2018-06-08T11:10:31.805Z,1828.13
2018-06-08T11:11:31.796Z,1861.88
2018-06-08T11:12:31.785Z,1800.00
2018-06-08T11:13:31.797Z,1608.75
2018-06-08T11:14:31.768Z,1614.38
2018-06-08T11:15:31.756Z,1603.13
2018-06-08T11:16:31.745Z,1558.13
2018-06-08T11:17:31.736Z,1541.25
2018-06-08T11:18:31.724Z,1417.50
2018-06-08T11:19:31.726Z,1299.38
2018-06-08T11:20:31.706Z,1158.75
2018-06-08T11:21:31.722Z,1063.13
2018-06-08T11:22:31.685Z,978.75
2018-06-08T11:23:31.677Z,939.38
2018-06-08T11:24:31.682Z,900.00
2018-06-08T11:25:31.657Z,877.50
2018-06-08T11:26:31.645Z,843.75
2018-06-08T11:27:31.637Z,804.38
2018-06-08T11:28:31.628Z,815.63
2018-06-08T11:29:31.634Z,843.75
2018-06-08T11:30:31.608Z,888.75
2018-06-08T11:31:31.601Z,922.50
2018-06-08T11:32:31.587Z,945.00
2018-06-08T11:33:31.576Z,967.50
2018-06-08T11:34:31.581Z,1001.25
2018-06-08T11:35:31.556Z,1057.50
2018-06-08T11:36:31.547Z,1141.88
2018-06-08T11:37:31.536Z,1220.63
2018-06-08T11:38:31.526Z,1327.50
2018-06-08T11:39:31.584Z,1428.75
2018-06-08T11:40:31.516Z,1496.25
2018-06-08T11:41:31.496Z,1524.38
2018-06-08T11:42:31.486Z,1530.00
2018-06-08T11:43:31.476Z,1496.25
2018-06-08T11:44:31.465Z,1434.38
2018-06-08T11:45:31.465Z,1333.13
2018-06-08T11:46:31.445Z,1276.88
2018-06-08T11:47:31.435Z,1226.25
2018-06-08T11:48:31.424Z,1192.50
2018-06-08T11:49:31.416Z,1192.50
2018-06-08T11:50:31.420Z,1209.38
2018-06-08T11:51:31.398Z,1265.63
2018-06-08T11:52:31.387Z,1372.50
2018-06-08T11:53:31.375Z,1338.75
2018-06-08T11:54:31.363Z,1231.88
2018-06-08T11:55:31.355Z,1248.75
2018-06-08T11:56:31.367Z,1282.50
2018-06-08T11:57:31.335Z,1361.25
2018-06-08T11:58:31.325Z,1417.50
2018-06-08T11:59:31.314Z,1417.50
2018-06-08T12:00:31.304Z,1389.38
2018-06-08T12:01:31.294Z,1248.75
2018-06-08T12:02:31.293Z,1001.25
2018-06-08T12:03:31.276Z,826.88
2018-06-08T12:04:31.264Z,725.63
2018-06-08T12:05:31.256Z,641.25
2018-06-08T12:06:31.244Z,573.75
2018-06-08T12:07:31.244Z,540.00
2018-06-08T12:08:31.223Z,517.50
2018-06-08T12:09:31.217Z,506.25
2018-06-08T12:10:31.204Z,506.25
2018-06-08T12:11:31.196Z,506.25
2018-06-08T12:12:31.194Z,517.50
2018-06-08T12:13:31.174Z,523.13
2018-06-08T12:14:31.165Z,528.75
2018-06-08T12:15:31.153Z,534.38
2018-06-08T12:16:31.143Z,579.38
2018-06-08T12:17:31.149Z,630.00
2018-06-08T12:18:31.122Z,697.50
2018-06-08T12:19:31.113Z,793.13
2018-06-08T12:20:31.101Z,888.75
2018-06-08T12:21:31.091Z,990.00
2018-06-08T12:22:31.078Z,1096.88
2018-06-08T12:23:31.088Z,1192.50
2018-06-08T12:24:31.060Z,1276.88
2018-06-08T12:25:31.050Z,1299.38
2018-06-08T12:26:31.038Z,1203.75
2018-06-08T12:27:31.028Z,1096.88
2018-06-08T12:28:31.017Z,1108.13
2018-06-08T12:29:31.017Z,1153.13
2018-06-08T12:30:30.997Z,1192.50
2018-06-08T12:31:30.993Z,1237.50
2018-06-08T12:32:30.976Z,1344.38
2018-06-08T12:33:30.968Z,1316.25
2018-06-08T12:34:30.967Z,1186.88
2018-06-08T12:35:30.946Z,1192.50
2018-06-08T12:36:30.935Z,1141.88
2018-06-08T12:37:30.927Z,956.25
2018-06-08T12:38:30.914Z,832.50